Time;durP1;ratioP1;P1;durP2;ratioP2;P2;SDS_P1;SDS_P2;PMS_P1;PMS_P2;Temp;Humidity;BMP_temperature;BMP_pressure;BME280_temperature;BME280_humidity;BME280_pressure;Samples;Min_cycle;Max_cycle;Signal;HPM_P1;HPM_P2
2022/08/14 00:00:04;;;;;;;;;;;20.40;99.90;;;;;;5073598;28;19916;-77
2022/08/14 00:02:30;;;;;;;;;;;20.40;99.90;;;;;;5073542;28;19920;-78
2022/08/14 00:04:55;;;;;;;;;;;20.40;99.90;;;;;;5073775;28;19912;-77
2022/08/14 00:07:21;;;;;;;;;;;20.40;99.90;;;;;;5105087;28;19960;-77
2022/08/14 00:09:47;;;;;;;;;;;20.40;99.90;;;;;;5072931;28;19924;-77
2022/08/14 00:12:12;;;;;;;;;;;20.40;99.90;;;;;;5066271;28;19921;-77
2022/08/14 00:14:38;;;;;;;;;;;20.30;99.90;;;;;;5073287;28;19999;-77
2022/08/14 00:17:04;;;;;;;;;;;20.40;99.90;;;;;;5069116;28;19961;-77
2022/08/14 00:19:29;;;;;;;;;;;20.30;99.90;;;;;;5072663;28;19920;-78
2022/08/14 00:21:55;;;;;;;;;;;20.30;99.90;;;;;;5071356;28;19921;-77
2022/08/14 00:24:21;;;;;;;;;;;20.40;99.90;;;;;;5073267;28;19969;-78
2022/08/14 00:26:47;;;;;;;;;;;20.40;99.90;;;;;;5107358;28;19912;-77
2022/08/14 00:29:12;;;;;;;;;;;20.40;99.90;;;;;;5072030;28;20309;-78
2022/08/14 00:31:38;;;;;;;;;;;20.40;99.90;;;;;;5066279;28;20185;-77
2022/08/14 00:34:03;;;;;;;;;;;20.30;99.90;;;;;;5105882;28;20253;-78
2022/08/14 00:36:29;;;;;;;;;;;20.30;99.90;;;;;;5105677;28;19913;-77
2022/08/14 00:38:54;;;;;;;;;;;20.40;99.90;;;;;;5073653;28;20299;-77
2022/08/14 00:41:20;;;;;;;;;;;20.30;99.90;;;;;;5073078;28;19917;-78
2022/08/14 00:43:46;;;;;;;;;;;20.30;99.90;;;;;;5071895;28;19943;-77
2022/08/14 00:46:11;;;;;;;;;;;20.30;99.90;;;;;;5061863;28;19917;-77
2022/08/14 00:48:37;;;;;;;;;;;20.30;99.90;;;;;;5102435;28;19916;-77
2022/08/14 00:51:04;;;;;;;;;;;20.30;99.90;;;;;;5071326;28;19925;-77
2022/08/14 00:53:31;;;;;;;;;;;20.30;99.90;;;;;;5071732;28;19913;-77
2022/08/14 00:55:56;;;;;;;;;;;20.30;99.90;;;;;;5072411;28;20006;-77
2022/08/14 00:58:31;;;;;;;;;;;20.20;99.90;;;;;;5072211;28;19999;-77
2022/08/14 01:01:07;;;;;;;;;;;20.20;99.90;;;;;;5072716;28;19916;-77
2022/08/14 01:03:34;;;;;;;;;;;20.30;99.90;;;;;;5066739;28;19927;-76
2022/08/14 01:06:00;;;;;;;;;;;20.30;99.90;;;;;;5060503;28;19909;-77
2022/08/14 01:08:27;;;;;;;;;;;20.20;99.90;;;;;;5069120;28;19916;-77
2022/08/14 01:10:53;;;;;;;;;;;20.20;99.90;;;;;;5071874;28;20296;-77
2022/08/14 01:13:20;;;;;;;;;;;20.20;99.90;;;;;;5062856;28;20290;-77
2022/08/14 01:15:47;;;;;;;;;;;20.20;99.90;;;;;;5071391;28;19920;-77
2022/08/14 01:21:03;;;;;;;;;;;20.10;99.90;;;;;;5068796;28;19924;-77
2022/08/14 01:23:29;;;;;;;;;;;20.10;99.90;;;;;;5072370;28;20292;-77
2022/08/14 01:25:55;;;;;;;;;;;20.10;99.90;;;;;;5071972;28;20003;-77
2022/08/14 01:28:21;;;;;;;;;;;20.10;99.90;;;;;;5070839;28;20202;-78
2022/08/14 01:30:48;;;;;;;;;;;20.10;99.90;;;;;;5072806;28;19923;-77
2022/08/14 01:33:15;;;;;;;;;;;20.10;99.90;;;;;;5070470;28;19944;-77
2022/08/14 01:35:45;;;;;;;;;;;20.10;99.90;;;;;;5072217;28;19912;-76
2022/08/14 01:38:13;;;;;;;;;;;20.10;99.90;;;;;;5070716;28;19969;-76
2022/08/14 01:40:39;;;;;;;;;;;20.10;99.90;;;;;;5070293;28;20528;-77
2022/08/14 01:43:13;;;;;;;;;;;20.00;99.90;;;;;;5071149;28;19916;-78
2022/08/14 01:45:39;;;;;;;;;;;20.10;99.90;;;;;;5070165;28;19968;-77
2022/08/14 01:48:05;;;;;;;;;;;20.10;99.90;;;;;;5072298;28;20344;-77
2022/08/14 01:50:31;;;;;;;;;;;20.10;99.90;;;;;;5104300;28;20034;-77
2022/08/14 01:52:56;;;;;;;;;;;20.00;99.90;;;;;;5072312;28;20035;-77
2022/08/14 01:55:23;;;;;;;;;;;20.00;99.90;;;;;;5105602;28;20315;-77
2022/08/14 01:57:49;;;;;;;;;;;19.90;99.90;;;;;;5069973;28;19916;-76
2022/08/14 02:00:15;;;;;;;;;;;19.90;99.90;;;;;;5070457;28;19912;-77
2022/08/14 02:02:41;;;;;;;;;;;19.90;99.90;;;;;;5074736;28;19912;-77
2022/08/14 02:05:10;;;;;;;;;;;19.90;99.90;;;;;;5077260;28;19912;-77
2022/08/14 02:07:36;;;;;;;;;;;19.90;99.90;;;;;;5075146;28;19919;-77
2022/08/14 02:10:02;;;;;;;;;;;19.90;99.90;;;;;;5075271;28;20013;-77
2022/08/14 02:12:29;;;;;;;;;;;19.80;99.90;;;;;;5075843;28;19917;-77
2022/08/14 02:14:55;;;;;;;;;;;19.90;99.90;;;;;;5074600;28;20199;-76
2022/08/14 02:17:22;;;;;;;;;;;19.80;99.90;;;;;;5074559;28;19917;-77
2022/08/14 02:19:48;;;;;;;;;;;19.80;99.90;;;;;;5075436;28;19987;-76
2022/08/14 02:22:17;;;;;;;;;;;19.80;99.90;;;;;;5074493;28;20319;-77
2022/08/14 02:24:43;;;;;;;;;;;19.80;99.90;;;;;;5074872;28;20239;-77
2022/08/14 02:27:12;;;;;;;;;;;19.80;99.90;;;;;;5075921;28;19916;-77
2022/08/14 02:29:39;;;;;;;;;;;19.80;99.90;;;;;;5077345;28;19935;-77
2022/08/14 02:32:05;;;;;;;;;;;19.70;99.90;;;;;;5074812;28;19912;-77
2022/08/14 02:34:32;;;;;;;;;;;19.70;99.90;;;;;;5075682;28;20440;-77
2022/08/14 02:37:01;;;;;;;;;;;19.70;99.90;;;;;;5068167;28;20402;-77
2022/08/14 02:39:31;;;;;;;;;;;19.60;99.90;;;;;;5075881;28;19934;-77
2022/08/14 02:41:57;;;;;;;;;;;19.60;99.90;;;;;;5073456;28;20288;-77
2022/08/14 02:44:23;;;;;;;;;;;19.40;99.90;;;;;;5106753;28;19913;-77
2022/08/14 02:46:50;;;;;;;;;;;19.40;99.90;;;;;;5074396;28;19974;-78
2022/08/14 02:49:16;;;;;;;;;;;19.30;99.90;;;;;;5075399;28;19913;-77
2022/08/14 02:51:41;;;;;;;;;;;19.30;99.90;;;;;;5107640;28;20197;-77
2022/08/14 02:54:09;;;;;;;;;;;19.30;99.90;;;;;;5075123;28;19958;-77
2022/08/14 02:56:37;;;;;;;;;;;19.30;99.90;;;;;;5072558;28;20193;-77
2022/08/14 02:59:04;;;;;;;;;;;19.30;99.90;;;;;;5066742;28;20371;-79
2022/08/14 03:01:29;;;;;;;;;;;19.30;99.90;;;;;;5070889;28;19916;-77
2022/08/14 03:03:55;;;;;;;;;;;19.30;99.90;;;;;;5073867;28;19923;-77
2022/08/14 03:06:23;;;;;;;;;;;19.30;99.90;;;;;;5073684;28;19917;-77
2022/08/14 03:08:49;;;;;;;;;;;19.30;99.90;;;;;;5107663;28;19912;-77
2022/08/14 03:11:15;;;;;;;;;;;19.30;99.90;;;;;;5074231;28;19966;-77
2022/08/14 03:13:53;;;;;;;;;;;19.30;99.90;;;;;;5073059;28;20277;-78
2022/08/14 03:16:21;;;;;;;;;;;19.20;99.90;;;;;;5074077;28;19916;-77
2022/08/14 03:18:47;;;;;;;;;;;19.20;99.90;;;;;;5074373;28;19954;-76
2022/08/14 03:21:15;;;;;;;;;;;19.20;99.90;;;;;;5070511;28;19987;-77
2022/08/14 03:23:42;;;;;;;;;;;19.20;99.90;;;;;;5069398;28;19956;-77
2022/08/14 03:26:09;;;;;;;;;;;19.20;99.90;;;;;;5073226;28;19999;-77
2022/08/14 03:28:35;;;;;;;;;;;19.10;99.90;;;;;;5072654;28;19920;-77
2022/08/14 03:31:00;;;;;;;;;;;19.00;99.90;;;;;;5060644;28;19908;-77
2022/08/14 03:33:26;;;;;;;;;;;19.00;99.90;;;;;;5071997;28;20035;-77
2022/08/14 03:35:52;;;;;;;;;;;18.90;99.90;;;;;;5063315;28;19963;-77
2022/08/14 03:38:18;;;;;;;;;;;18.80;99.90;;;;;;5104494;28;20201;-78
2022/08/14 03:40:45;;;;;;;;;;;18.70;99.90;;;;;;5074616;28;19920;-77
2022/08/14 03:43:11;;;;;;;;;;;18.60;99.90;;;;;;5071342;28;19921;-78
2022/08/14 03:45:38;;;;;;;;;;;18.60;99.90;;;;;;5071762;28;19916;-77
2022/08/14 03:48:12;;;;;;;;;;;18.60;99.90;;;;;;5072233;28;19920;-78
2022/08/14 03:50:38;;;;;;;;;;;18.50;99.90;;;;;;5071402;28;20236;-77
2022/08/14 03:53:04;;;;;;;;;;;18.50;99.90;;;;;;5066641;28;19924;-77
2022/08/14 03:55:29;;;;;;;;;;;18.50;99.90;;;;;;5072691;28;20227;-77
2022/08/14 03:57:55;;;;;;;;;;;18.40;99.90;;;;;;5073250;28;20334;-77
2022/08/14 04:00:20;;;;;;;;;;;18.40;99.90;;;;;;5071169;28;19916;-76
2022/08/14 04:02:48;;;;;;;;;;;18.40;99.90;;;;;;5072338;28;19927;-77
2022/08/14 04:05:14;;;;;;;;;;;18.30;99.90;;;;;;5073985;28;19912;-77
2022/08/14 04:07:40;;;;;;;;;;;18.30;99.90;;;;;;5073004;28;19923;-77
2022/08/14 04:10:06;;;;;;;;;;;18.30;99.90;;;;;;5072888;28;19912;-77
2022/08/14 04:12:32;;;;;;;;;;;18.30;99.90;;;;;;5072121;28;19954;-77
2022/08/14 04:14:58;;;;;;;;;;;18.30;99.90;;;;;;5073509;28;20267;-78
2022/08/14 04:17:25;;;;;;;;;;;18.30;99.90;;;;;;5069691;28;19999;-76
2022/08/14 04:19:51;;;;;;;;;;;18.20;99.90;;;;;;5071605;28;19919;-77
2022/08/14 04:22:17;;;;;;;;;;;18.20;99.90;;;;;;5072387;28;19974;-77
2022/08/14 04:24:43;;;;;;;;;;;18.20;99.90;;;;;;5064667;28;20283;-77
2022/08/14 04:27:10;;;;;;;;;;;18.10;99.90;;;;;;5072796;28;20026;-77
2022/08/14 04:29:40;;;;;;;;;;;18.20;99.90;;;;;;5070244;28;19919;-77
2022/08/14 04:32:07;;;;;;;;;;;18.20;99.90;;;;;;5072339;28;19913;-77
2022/08/14 04:34:33;;;;;;;;;;;18.20;99.90;;;;;;5070768;28;19925;-77
2022/08/14 04:45:14;;;;;;;;;;;18.30;99.90;;;;;;5043163;28;19938;-77
2022/08/14 04:50:26;;;;;;;;;;;18.40;99.90;;;;;;5066956;28;20334;-77
2022/08/14 04:52:51;;;;;;;;;;;18.40;99.90;;;;;;5070604;28;19917;-77
2022/08/14 04:55:17;;;;;;;;;;;18.40;99.90;;;;;;5069998;28;20337;-77
2022/08/14 04:57:43;;;;;;;;;;;18.50;99.90;;;;;;5071153;28;19913;-77
2022/08/14 05:00:09;;;;;;;;;;;18.50;99.90;;;;;;5070554;28;19917;-77
2022/08/14 05:02:35;;;;;;;;;;;18.50;99.90;;;;;;5072420;28;19997;-77
2022/08/14 05:05:01;;;;;;;;;;;18.40;99.90;;;;;;5072475;28;19944;-77
2022/08/14 05:07:27;;;;;;;;;;;18.40;99.90;;;;;;5069664;28;20014;-77
2022/08/14 05:09:52;;;;;;;;;;;18.50;99.90;;;;;;5062616;28;20291;-76
2022/08/14 05:12:18;;;;;;;;;;;18.60;99.90;;;;;;5072021;28;20011;-77
2022/08/14 05:14:44;;;;;;;;;;;18.60;99.90;;;;;;5074050;28;19997;-77
2022/08/14 05:17:10;;;;;;;;;;;18.60;99.90;;;;;;5069243;28;19925;-77
2022/08/14 05:19:35;;;;;;;;;;;18.70;99.90;;;;;;5105131;28;20230;-77
2022/08/14 05:22:01;;;;;;;;;;;18.80;99.90;;;;;;5069724;28;19920;-77
2022/08/14 05:24:27;;;;;;;;;;;18.80;99.90;;;;;;5068710;28;19922;-77
2022/08/14 05:26:53;;;;;;;;;;;18.80;99.90;;;;;;5072550;28;19955;-76
2022/08/14 05:29:18;;;;;;;;;;;18.90;99.90;;;;;;5070986;28;19948;-77
2022/08/14 05:31:44;;;;;;;;;;;18.90;99.90;;;;;;5071888;28;19917;-77
2022/08/14 05:34:10;;;;;;;;;;;18.90;99.90;;;;;;5071844;28;19952;-76
2022/08/14 05:36:36;;;;;;;;;;;19.00;99.90;;;;;;5069135;28;19936;-77
2022/08/14 05:39:03;;;;;;;;;;;19.00;99.90;;;;;;5072432;28;19921;-76
2022/08/14 05:41:28;;;;;;;;;;;19.10;99.90;;;;;;5070383;28;19920;-77
2022/08/14 05:43:54;;;;;;;;;;;19.20;99.90;;;;;;5070601;28;20276;-75
2022/08/14 05:46:22;;;;;;;;;;;19.20;99.90;;;;;;5070587;28;19944;-77
2022/08/14 05:48:52;;;;;;;;;;;19.30;99.90;;;;;;5069741;28;19934;-77
2022/08/14 05:51:18;;;;;;;;;;;19.40;99.90;;;;;;5068314;28;20017;-76
2022/08/14 05:53:44;;;;;;;;;;;19.50;99.90;;;;;;5069122;28;20034;-77
2022/08/14 05:56:09;;;;;;;;;;;19.60;99.90;;;;;;5070289;28;19912;-77
2022/08/14 05:58:35;;;;;;;;;;;19.60;99.90;;;;;;5072430;28;19919;-77
2022/08/14 06:01:01;;;;;;;;;;;19.70;99.90;;;;;;5070986;28;19942;-76
2022/08/14 06:03:26;;;;;;;;;;;19.70;99.90;;;;;;5071811;28;19967;-76
2022/08/14 06:05:52;;;;;;;;;;;19.90;99.90;;;;;;5070784;28;19916;-76
2022/08/14 06:08:21;;;;;;;;;;;19.90;99.90;;;;;;5072038;28;19970;-75
2022/08/14 06:10:48;;;;;;;;;;;19.90;99.90;;;;;;5073335;28;20319;-77
2022/08/14 06:13:13;;;;;;;;;;;20.00;99.90;;;;;;5073641;28;19912;-76
2022/08/14 06:15:40;;;;;;;;;;;20.10;99.90;;;;;;5073295;28;19913;-77
2022/08/14 06:18:06;;;;;;;;;;;20.20;99.90;;;;;;5073632;28;19912;-76
2022/08/14 06:20:32;;;;;;;;;;;20.20;99.90;;;;;;5073178;28;20318;-78
2022/08/14 06:22:58;;;;;;;;;;;20.40;99.90;;;;;;5073221;28;20009;-76
2022/08/14 06:25:24;;;;;;;;;;;20.40;99.90;;;;;;5072418;28;19920;-77
2022/08/14 06:27:50;;;;;;;;;;;20.50;99.90;;;;;;5071739;28;19913;-77
2022/08/14 06:30:20;;;;;;;;;;;20.70;99.90;;;;;;5074389;28;19908;-76
2022/08/14 06:32:46;;;;;;;;;;;20.80;99.90;;;;;;5071379;28;19912;-74
2022/08/14 06:35:13;;;;;;;;;;;21.00;99.90;;;;;;5060366;28;20334;-78
2022/08/14 06:37:39;;;;;;;;;;;21.10;99.90;;;;;;5058999;28;19947;-77
2022/08/14 06:40:06;;;;;;;;;;;21.20;99.90;;;;;;5073662;28;19908;-76
2022/08/14 06:42:32;;;;;;;;;;;21.30;99.90;;;;;;5072293;28;19923;-72
2022/08/14 06:45:00;;;;;;;;;;;21.30;99.90;;;;;;5070990;28;19912;-76
2022/08/14 06:47:26;;;;;;;;;;;21.40;99.90;;;;;;5073995;28;19909;-75
2022/08/14 06:49:51;;;;;;;;;;;21.50;99.90;;;;;;5073796;28;19919;-76
2022/08/14 06:52:17;;;;;;;;;;;21.60;99.90;;;;;;5065633;28;19912;-75
2022/08/14 06:54:43;;;;;;;;;;;21.70;99.90;;;;;;5076476;28;19915;-75
2022/08/14 06:57:08;;;;;;;;;;;21.80;99.90;;;;;;5076835;28;20010;-75
2022/08/14 06:59:34;;;;;;;;;;;21.90;99.90;;;;;;5076986;28;19912;-75
2022/08/14 07:07:38;;;;;;;;;;;22.20;99.90;;;;;;5073381;28;19966;-76
2022/08/14 07:10:04;;;;;;;;;;;22.30;99.90;;;;;;5073612;28;19998;-75
2022/08/14 07:12:30;;;;;;;;;;;22.40;99.90;;;;;;5074339;28;19908;-76
2022/08/14 07:14:55;;;;;;;;;;;22.40;99.90;;;;;;5074182;28;19973;-77
2022/08/14 07:17:21;;;;;;;;;;;22.50;99.90;;;;;;5070843;28;19929;-76
2022/08/14 07:19:47;;;;;;;;;;;22.60;99.90;;;;;;5075274;28;19916;-77
2022/08/14 07:22:12;;;;;;;;;;;22.80;99.90;;;;;;5073796;28;19921;-78
2022/08/14 07:24:38;;;;;;;;;;;22.90;99.90;;;;;;5071338;28;20362;-74
2022/08/14 07:27:03;;;;;;;;;;;23.10;99.90;;;;;;5074821;28;19931;-72
2022/08/14 07:29:29;;;;;;;;;;;23.40;99.90;;;;;;5072538;28;19924;-78
2022/08/14 07:31:55;;;;;;;;;;;23.80;99.90;;;;;;5072294;28;19921;-76
2022/08/14 07:34:20;;;;;;;;;;;24.20;99.90;;;;;;5073116;28;19964;-76
2022/08/14 07:36:47;;;;;;;;;;;24.60;99.90;;;;;;5073402;28;20453;-78
2022/08/14 07:39:12;;;;;;;;;;;25.00;99.90;;;;;;5072312;28;19920;-74
2022/08/14 07:41:38;;;;;;;;;;;25.20;99.90;;;;;;5074018;28;20349;-75
2022/08/14 07:44:04;;;;;;;;;;;25.40;99.90;;;;;;5075051;28;19942;-77
2022/08/14 07:46:30;;;;;;;;;;;25.80;99.90;;;;;;5070655;28;19951;-75
2022/08/14 07:48:55;;;;;;;;;;;26.10;99.80;;;;;;5071413;28;19984;-77
2022/08/14 07:51:21;;;;;;;;;;;26.30;99.50;;;;;;5070930;28;19917;-75
2022/08/14 07:53:46;;;;;;;;;;;26.60;99.50;;;;;;5073441;28;19916;-75
2022/08/14 07:56:12;;;;;;;;;;;26.70;98.60;;;;;;5074152;28;20011;-77
2022/08/14 07:58:38;;;;;;;;;;;26.90;98.90;;;;;;5074485;28;19954;-75
2022/08/14 08:01:05;;;;;;;;;;;27.10;99.40;;;;;;5074267;28;19925;-75
2022/08/14 08:03:32;;;;;;;;;;;27.40;97.90;;;;;;5074037;28;19962;-76
2022/08/14 08:05:59;;;;;;;;;;;27.60;98.40;;;;;;5068604;28;19917;-76
2022/08/14 08:08:25;;;;;;;;;;;27.70;98.40;;;;;;5069157;28;19913;-76
2022/08/14 08:10:53;;;;;;;;;;;27.90;96.40;;;;;;5073260;28;19917;-76
2022/08/14 08:13:20;;;;;;;;;;;28.00;96.70;;;;;;5072404;28;19912;-75
2022/08/14 08:15:49;;;;;;;;;;;27.90;95.80;;;;;;5070738;28;20254;-77
2022/08/14 08:18:16;;;;;;;;;;;27.90;97.40;;;;;;5091941;28;19995;-75
2022/08/14 08:20:46;;;;;;;;;;;28.00;96.50;;;;;;5056954;28;19912;-76
2022/08/14 08:23:13;;;;;;;;;;;28.10;96.70;;;;;;5090872;28;20312;-76
2022/08/14 08:25:42;;;;;;;;;;;28.30;97.30;;;;;;5067288;28;20188;-76
2022/08/14 08:28:09;;;;;;;;;;;28.60;95.60;;;;;;5090202;28;19917;-76
2022/08/14 08:30:36;;;;;;;;;;;28.70;95.90;;;;;;5101825;28;19913;-76
2022/08/14 08:33:03;;;;;;;;;;;28.50;96.00;;;;;;5062010;28;19923;-76
2022/08/14 08:35:33;;;;;;;;;;;28.70;95.40;;;;;;5061235;28;20013;-76
2022/08/14 08:38:03;;;;;;;;;;;28.90;96.10;;;;;;5059947;28;20007;-76
2022/08/14 08:40:36;;;;;;;;;;;29.10;95.40;;;;;;5045063;28;19920;-76
2022/08/14 08:43:05;;;;;;;;;;;29.00;95.40;;;;;;5064721;28;19923;-76
2022/08/14 08:45:32;;;;;;;;;;;29.20;96.10;;;;;;5072232;28;19912;-76
2022/08/14 08:47:57;;;;;;;;;;;28.90;95.50;;;;;;5071998;28;20007;-75
2022/08/14 08:50:29;;;;;;;;;;;28.90;95.70;;;;;;5070470;28;20392;-76
2022/08/14 08:52:55;;;;;;;;;;;28.70;95.40;;;;;;5068909;28;19927;-75
2022/08/14 08:55:32;;;;;;;;;;;28.90;94.70;;;;;;5070553;28;19923;-76
2022/08/14 08:58:10;;;;;;;;;;;29.00;94.80;;;;;;5069516;28;19955;-75
2022/08/14 09:00:36;;;;;;;;;;;29.20;95.70;;;;;;5070850;28;19947;-76
2022/08/14 09:03:03;;;;;;;;;;;29.40;95.20;;;;;;5072886;28;20342;-76
2022/08/14 09:05:30;;;;;;;;;;;29.60;95.30;;;;;;5070512;28;19955;-76
2022/08/14 09:08:12;;;;;;;;;;;29.60;94.40;;;;;;5072398;28;20011;-76
2022/08/14 09:10:38;;;;;;;;;;;29.40;94.50;;;;;;5071037;28;19912;-76
2022/08/14 09:13:04;;;;;;;;;;;29.20;94.90;;;;;;5071975;28;20269;-77
2022/08/14 09:15:29;;;;;;;;;;;29.20;95.40;;;;;;5072588;28;19923;-75
2022/08/14 09:17:56;;;;;;;;;;;29.70;94.80;;;;;;5072104;28;20219;-76
2022/08/14 09:20:22;;;;;;;;;;;29.80;94.70;;;;;;5073251;28;19916;-76
2022/08/14 09:22:48;;;;;;;;;;;29.70;94.50;;;;;;5053426;28;20323;-77
2022/08/14 09:25:17;;;;;;;;;;;29.90;94.20;;;;;;5072815;28;19991;-77
2022/08/14 09:27:42;;;;;;;;;;;29.80;94.20;;;;;;5069710;28;20013;-77
2022/08/14 09:30:08;;;;;;;;;;;29.80;93.90;;;;;;5073244;28;20318;-78
2022/08/14 09:32:42;;;;;;;;;;;30.10;93.90;;;;;;5071827;28;19917;-77
2022/08/14 09:35:12;;;;;;;;;;;30.30;93.40;;;;;;5070167;28;19924;-76
2022/08/14 09:37:47;;;;;;;;;;;30.60;92.40;;;;;;5070872;28;19959;-75
2022/08/14 09:40:13;;;;;;;;;;;30.80;91.90;;;;;;5086183;28;19912;-76
2022/08/14 09:43:09;;;;;;;;;;;30.80;92.50;;;;;;5070184;28;20273;-77
2022/08/14 09:45:44;;;;;;;;;;;30.70;92.80;;;;;;5029056;28;19924;-77
2022/08/14 09:48:13;;;;;;;;;;;30.50;92.40;;;;;;5010550;28;20323;-75
2022/08/14 09:50:48;;;;;;;;;;;30.80;92.60;;;;;;5010796;28;19921;-76
2022/08/14 09:53:33;;;;;;;;;;;30.80;92.50;;;;;;5013158;28;19982;-77
2022/08/14 09:55:59;;;;;;;;;;;30.90;92.30;;;;;;5020317;28;19914;-77
2022/08/14 09:58:34;;;;;;;;;;;31.20;91.80;;;;;;5008545;28;20541;-75
2022/08/14 10:01:06;;;;;;;;;;;31.50;91.40;;;;;;5016980;28;19961;-77
2022/08/14 10:03:34;;;;;;;;;;;31.70;92.80;;;;;;5017113;28;19921;-77
2022/08/14 10:06:07;;;;;;;;;;;31.50;93.20;;;;;;5007355;28;19955;-77
2022/08/14 10:08:43;;;;;;;;;;;31.50;93.20;;;;;;5015285;28;20006;-76
2022/08/14 10:11:16;;;;;;;;;;;31.30;92.80;;;;;;4996102;28;19999;-75
2022/08/14 10:13:42;;;;;;;;;;;31.20;93.40;;;;;;5018524;28;19925;-77
2022/08/14 10:16:07;;;;;;;;;;;31.60;91.80;;;;;;5012729;28;20316;-79
2022/08/14 10:18:33;;;;;;;;;;;31.50;91.50;;;;;;5022216;28;19965;-79
2022/08/14 10:21:00;;;;;;;;;;;31.90;92.70;;;;;;5012437;28;19917;-75
2022/08/14 10:23:27;;;;;;;;;;;32.20;90.80;;;;;;5070090;28;20219;-77
2022/08/14 10:25:57;;;;;;;;;;;32.40;91.40;;;;;;5071562;28;20192;-73
2022/08/14 10:28:23;;;;;;;;;;;32.40;90.20;;;;;;5062029;28;19966;-76
2022/08/14 10:30:53;;;;;;;;;;;32.20;90.80;;;;;;5073126;28;20027;-77
2022/08/14 10:33:24;;;;;;;;;;;32.10;91.30;;;;;;5070022;28;19999;-78
2022/08/14 10:35:50;;;;;;;;;;;31.70;91.30;;;;;;5065429;28;19920;-77
2022/08/14 10:38:26;;;;;;;;;;;31.50;91.60;;;;;;5073260;28;19913;-77
2022/08/14 10:40:52;;;;;;;;;;;31.20;91.70;;;;;;5068821;28;19913;-78
2022/08/14 10:43:19;;;;;;;;;;;31.40;92.70;;;;;;5054643;28;20688;-76
2022/08/14 10:45:55;;;;;;;;;;;31.50;91.40;;;;;;5106227;28;19962;-77
2022/08/14 10:48:20;;;;;;;;;;;31.50;91.90;;;;;;5072387;28;19916;-77
2022/08/14 10:50:50;;;;;;;;;;;31.50;92.10;;;;;;5097947;28;20263;-78
2022/08/14 10:53:26;;;;;;;;;;;31.40;91.30;;;;;;5068605;28;20376;-77
2022/08/14 10:55:56;;;;;;;;;;;31.20;91.40;;;;;;5071117;28;19920;-77
2022/08/14 10:58:26;;;;;;;;;;;31.00;91.60;;;;;;5070193;28;19917;-75
2022/08/14 11:00:56;;;;;;;;;;;31.30;91.50;;;;;;5070754;28;20623;-75
2022/08/14 11:03:24;;;;;;;;;;;31.40;90.80;;;;;;5067243;28;19924;-78
2022/08/14 11:05:50;;;;;;;;;;;31.40;91.00;;;;;;5070896;28;20284;-78
2022/08/14 11:08:18;;;;;;;;;;;31.50;90.60;;;;;;5069238;28;19937;-79
2022/08/14 11:10:49;;;;;;;;;;;31.30;90.80;;;;;;5071276;28;19924;-79
2022/08/14 11:13:20;;;;;;;;;;;31.40;91.00;;;;;;5068905;28;20393;-78
2022/08/14 11:15:47;;;;;;;;;;;31.50;91.10;;;;;;5070598;28;19956;-77
2022/08/14 11:18:13;;;;;;;;;;;31.50;91.30;;;;;;5070490;28;20330;-76
2022/08/14 11:20:44;;;;;;;;;;;31.30;90.70;;;;;;5070251;28;19920;-77
2022/08/14 11:23:11;;;;;;;;;;;31.20;90.50;;;;;;5070646;28;20015;-78
2022/08/14 11:25:37;;;;;;;;;;;31.20;90.50;;;;;;5070313;28;20050;-78
2022/08/14 11:28:03;;;;;;;;;;;31.60;91.00;;;;;;5069199;28;20378;-79
2022/08/14 11:30:29;;;;;;;;;;;31.70;89.50;;;;;;5069619;28;19923;-79
2022/08/14 11:32:56;;;;;;;;;;;31.90;90.40;;;;;;5068534;28;20582;-83
2022/08/14 11:35:25;;;;;;;;;;;32.20;85.80;;;;;;5069307;28;19917;-77
2022/08/14 11:37:53;;;;;;;;;;;32.20;89.30;;;;;;5066784;28;19917;-77
2022/08/14 11:40:20;;;;;;;;;;;32.00;87.50;;;;;;5070184;28;19917;-77
2022/08/14 11:42:46;;;;;;;;;;;31.90;89.90;;;;;;5069119;28;19920;-75
2022/08/14 11:45:13;;;;;;;;;;;32.00;84.00;;;;;;5070610;28;19917;-77
2022/08/14 11:47:38;;;;;;;;;;;32.30;84.10;;;;;;5069762;28;20224;-79
2022/08/14 11:50:11;;;;;;;;;;;32.30;86.40;;;;;;5069908;28;19927;-78
2022/08/14 11:52:37;;;;;;;;;;;31.80;86.60;;;;;;5068270;28;19921;-77
2022/08/14 11:55:06;;;;;;;;;;;31.30;90.10;;;;;;5070840;28;20304;-76
2022/08/14 11:57:32;;;;;;;;;;;30.80;88.80;;;;;;5070306;28;19916;-77
2022/08/14 12:00:17;;;;;;;;;;;30.80;90.10;;;;;;5068404;28;19927;-77
2022/08/14 12:02:53;;;;;;;;;;;30.80;90.20;;;;;;5070500;28;19970;-78
2022/08/14 12:05:29;;;;;;;;;;;30.60;90.10;;;;;;5070063;28;21431;-77
2022/08/14 12:07:55;;;;;;;;;;;30.30;90.50;;;;;;5068853;28;19999;-77
2022/08/14 12:10:21;;;;;;;;;;;30.20;91.20;;;;;;5068603;28;19926;-77
2022/08/14 12:12:48;;;;;;;;;;;30.10;90.40;;;;;;5071087;28;20011;-78
2022/08/14 12:15:13;;;;;;;;;;;30.50;91.00;;;;;;5067688;28;20011;-79
2022/08/14 12:17:43;;;;;;;;;;;30.70;89.70;;;;;;5068561;28;20003;-77
2022/08/14 12:20:10;;;;;;;;;;;30.60;88.70;;;;;;5068340;28;19916;-76
2022/08/14 12:22:35;;;;;;;;;;;30.60;90.30;;;;;;5068786;28;19924;-76
2022/08/14 12:25:03;;;;;;;;;;;30.40;89.80;;;;;;5069874;28;19966;-77
2022/08/14 12:27:34;;;;;;;;;;;30.20;90.00;;;;;;5067540;28;19916;-78
2022/08/14 12:30:00;;;;;;;;;;;30.10;90.50;;;;;;5068122;28;20030;-76
2022/08/14 12:32:36;;;;;;;;;;;30.40;90.90;;;;;;5070231;28;20478;-76
2022/08/14 12:35:02;;;;;;;;;;;30.80;90.30;;;;;;5070088;28;20231;-76
2022/08/14 12:37:29;;;;;;;;;;;31.30;88.20;;;;;;5071073;28;19916;-77
2022/08/14 12:39:55;;;;;;;;;;;31.50;87.90;;;;;;5069839;28;19913;-77
2022/08/14 12:42:20;;;;;;;;;;;31.50;85.00;;;;;;5067448;28;19926;-76
2022/08/14 12:44:47;;;;;;;;;;;31.50;85.10;;;;;;5066882;28;20007;-76
2022/08/14 12:47:19;;;;;;;;;;;31.70;86.80;;;;;;5062230;28;20299;-76
2022/08/14 12:49:52;;;;;;;;;;;32.10;84.00;;;;;;5061576;28;19920;-78
2022/08/14 12:52:30;;;;;;;;;;;32.20;84.70;;;;;;5063836;28;19920;-77
2022/08/14 12:55:00;;;;;;;;;;;32.10;88.30;;;;;;5064266;28;20307;-76
2022/08/14 12:57:33;;;;;;;;;;;31.90;85.70;;;;;;5095488;28;19920;-77
2022/08/14 13:00:06;;;;;;;;;;;31.80;85.40;;;;;;5060914;28;20270;-77
2022/08/14 13:02:36;;;;;;;;;;;31.70;85.60;;;;;;5060678;28;19927;-77
2022/08/14 13:05:03;;;;;;;;;;;31.70;84.60;;;;;;5062771;28;19928;-77
2022/08/14 13:07:29;;;;;;;;;;;31.50;83.80;;;;;;5063480;28;19917;-78
2022/08/14 13:09:55;;;;;;;;;;;31.30;87.50;;;;;;5067189;28;19920;-77
2022/08/14 13:12:24;;;;;;;;;;;31.30;87.20;;;;;;5068520;28;19916;-78
2022/08/14 13:14:50;;;;;;;;;;;31.30;87.00;;;;;;5063111;28;19917;-78
2022/08/14 13:17:16;;;;;;;;;;;31.30;86.40;;;;;;5061515;28;19920;-76
2022/08/14 13:19:44;;;;;;;;;;;31.30;87.60;;;;;;5064911;28;20405;-74
2022/08/14 13:22:09;;;;;;;;;;;31.40;85.70;;;;;;5066249;28;19920;-76
2022/08/14 13:24:36;;;;;;;;;;;31.20;88.60;;;;;;5064286;28;19928;-77
2022/08/14 13:27:03;;;;;;;;;;;31.10;90.30;;;;;;5062653;28;20057;-77
2022/08/14 13:29:30;;;;;;;;;;;30.90;90.30;;;;;;5064711;28;19925;-77
2022/08/14 13:31:59;;;;;;;;;;;30.70;90.40;;;;;;5062564;28;19921;-79
2022/08/14 13:34:28;;;;;;;;;;;30.50;91.80;;;;;;5062415;28;19931;-78
2022/08/14 13:36:55;;;;;;;;;;;30.30;92.10;;;;;;5063218;28;19912;-78
2022/08/14 13:39:22;;;;;;;;;;;30.10;92.30;;;;;;5084480;28;20559;-79
2022/08/14 13:41:47;;;;;;;;;;;30.30;91.60;;;;;;5068302;28;19916;-79
2022/08/14 13:44:14;;;;;;;;;;;30.40;91.80;;;;;;5067679;28;19973;-80
2022/08/14 13:46:40;;;;;;;;;;;30.40;91.20;;;;;;5067065;28;19920;-77
2022/08/14 13:49:10;;;;;;;;;;;30.40;91.30;;;;;;5068869;28;19921;-79
2022/08/14 13:51:43;;;;;;;;;;;30.30;91.90;;;;;;5066584;28;19924;-77
2022/08/14 13:54:09;;;;;;;;;;;30.20;90.00;;;;;;5069086;28;20015;-77
2022/08/14 13:56:38;;;;;;;;;;;30.10;91.10;;;;;;5067800;28;20045;-77
2022/08/14 13:59:04;;;;;;;;;;;30.00;90.40;;;;;;5071690;28;20065;-79
2022/08/14 14:01:33;;;;;;;;;;;30.00;91.20;;;;;;5070972;28;20325;-77
2022/08/14 14:03:59;;;;;;;;;;;30.20;91.50;;;;;;5073136;28;20313;-77
2022/08/14 14:06:25;;;;;;;;;;;30.60;90.70;;;;;;5071385;28;20227;-78
2022/08/14 14:08:53;;;;;;;;;;;30.90;91.00;;;;;;5071838;28;19989;-79
2022/08/14 14:11:27;;;;;;;;;;;31.20;91.30;;;;;;5070305;28;19921;-76
2022/08/14 14:13:54;;;;;;;;;;;31.30;91.60;;;;;;5070843;28;20223;-75
2022/08/14 14:16:20;;;;;;;;;;;31.10;91.70;;;;;;5070742;28;19936;-73
2022/08/14 14:18:50;;;;;;;;;;;30.90;92.60;;;;;;5070145;28;19924;-75
2022/08/14 14:21:17;;;;;;;;;;;30.80;92.90;;;;;;5070503;28;19916;-77
2022/08/14 14:23:43;;;;;;;;;;;30.70;91.20;;;;;;5070557;28;19981;-77
2022/08/14 14:26:11;;;;;;;;;;;30.50;92.00;;;;;;5072767;28;20313;-77
2022/08/14 14:28:37;;;;;;;;;;;30.30;91.80;;;;;;5104569;28;20412;-79
2022/08/14 14:31:03;;;;;;;;;;;30.20;92.60;;;;;;5070084;28;19962;-75
2022/08/14 14:33:29;;;;;;;;;;;30.40;92.90;;;;;;5071342;28;19970;-79
2022/08/14 14:35:56;;;;;;;;;;;30.50;91.50;;;;;;5071878;28;20401;-75